EDT,Max TemperatureF,Mean TemperatureF,Min TemperatureF,Max Dew PointF,MeanDew PointF,Min DewpointF,Max Humidity, Mean Humidity, Min Humidity, Max Sea Level PressureIn, Mean Sea Level PressureIn, Min Sea Level PressureIn, Max VisibilityMiles, Mean VisibilityMiles, Min VisibilityMiles, Max Wind SpeedMPH, Mean Wind SpeedMPH, Max Gust SpeedMPH,PrecipitationIn, CloudCover, Events, WindDirDegrees
2013-3-1,34,30,26,32,25,18,92,80,68,29.94,29.85,29.72,10,7,2,16,9,22,0.06,8,Snow,312
2013-3-2,28,26,23,21,19,17,88,81,74,29.96,29.92,29.87,10,6,2,15,9,18,0.02,8,Snow,300
2013-3-3,26,24,21,20,17,13,84,76,68,29.91,29.88,29.85,10,4,1,17,10,25,0.05,8,Snow,312
2013-3-4,30,26,22,20,18,15,81,70,58,30.06,29.99,29.91,10,9,6,17,14,23,T,8,Snow,289
2013-3-5,32,29,25,23,20,18,81,72,63,30.12,30.07,30.00,10,10,7,15,7,17,T,6,Snow,41
2013-3-6,39,31,23,31,26,18,82,71,59,30.16,30.08,29.98,10,10,10,17,9,32,T,7,Snow,48
2013-3-7,37,34,31,32,29,24,96,80,64,30.30,30.23,30.15,10,9,2,15,8,17,0.01,8,Snow,6
2013-3-8,41,34,27,26,23,21,85,65,45,30.40,30.36,30.28,10,10,10,22,9,26,T,4,,328
2013-3-9,49,37,24,32,27,23,92,67,42,30.44,30.37,30.25,10,8,2,12,5,,0.00,4,,230
2013-3-10,64,48,32,29,27,23,82,54,25,30.23,30.08,29.97,10,10,10,18,8,28,0.00,7,,183
2013-3-11,57,54,51,43,30,26,61,47,32,29.97,29.85,29.68,10,10,10,29,12,44,T,8,,180
2013-3-12,53,44,35,46,34,26,93,79,64,29.92,29.82,29.71,10,10,6,24,12,30,0.19,8,Rain-Snow,257
2013-3-13,40,32,23,30,22,16,78,68,58,29.95,29.89,29.82,10,5,0,30,16,38,0.01,7,Fog-Snow,265
2013-3-14,33,26,19,16,11,6,77,55,33,30.08,30.03,29.93,10,7,2,32,18,44,T,5,Snow,289
2013-3-15,38,31,24,30,24,13,89,71,53,30.06,29.83,29.73,10,7,1,28,14,37,0.03,7,Snow,255
2013-3-16,30,25,19,20,17,14,84,69,53,30.00,29.90,29.85,10,8,2,15,7,20,T,6,Snow,19
2013-3-17,31,25,19,21,17,4,92,68,44,30.36,30.18,30.00,10,6,1,17,6,20,0.02,6,Snow,300
2013-3-18,35,27,18,30,21,10,85,62,38,30.36,30.00,29.73,10,5,1,26,12,35,0.28,7,Rain-Snow,131
2013-3-19,37,32,26,32,25,18,82,71,59,29.83,29.75,29.67,10,9,1,22,12,28,T,7,Rain-Snow,228
2013-3-20,34,28,22,23,20,16,84,68,51,29.85,29.83,29.80,10,7,0,28,14,36,0.01,6,Snow,257
2013-3-21,31,24,17,24,17,13,78,63,47,29.85,29.78,29.73,10,9,1,23,11,29,0.02,5,Snow,256
2013-3-22,32,29,26,25,23,19,92,78,63,29.94,29.81,29.72,10,6,0,23,15,29,0.08,8,Fog-Snow,272
2013-3-23,38,34,29,25,23,21,78,65,52,30.03,29.97,29.91,10,10,5,22,13,28,T,5,Snow,289
2013-3-24,39,32,24,25,22,20,84,66,48,30.03,29.92,29.76,10,10,10,15,8,20,0.00,6,,2
2013-3-25,40,36,32,27,25,22,75,65,54,29.74,29.69,29.64,10,10,10,22,9,26,0.00,7,,45
2013-3-26,46,37,28,31,27,24,85,67,49,29.95,29.85,29.75,10,10,9,17,8,22,T,6,,297
2013-3-27,47,40,32,34,30,24,96,75,53,30.08,30.00,29.94,10,9,2,22,12,28,0.05,7,Rain-Snow,265
2013-3-28,45,40,34,34,31,26,96,73,49,30.22,30.13,30.04,10,9,3,15,9,20,T,8,Snow,280
2013-3-29,52,43,34,32,30,23,76,55,33,30.22,30.19,30.14,10,10,10,15,10,21,0.00,7,,279
2013-3-30,53,41,28,28,24,20,85,57,28,30.22,30.16,30.07,10,10,10,14,6,18,0.00,1,,245
2013-3-31,58,45,32,42,31,23,83,58,32,30.06,29.81,29.63,10,10,8,26,9,33,0.02,7,Rain,200